Nobleboro, Maine
Current Conditions -  °F | °C
As of 12:53 AM on Wednesday 22 Oct 2014 (Local Time) from KIWI Reporting Station
Light Rain Light Rain  
Wind Chill: 52°   Ceiling: 900
Heat Index: 52°   Visibility: 6mi
Dew Point: 50°   Wind: 6mph
Humidity: 93%   Direction: NA
Pressure: 30.09"   Gusts: NA
Location:  44.08°N, 69.49°W
Report Text: KIWI 220453Z AUTO VRB05KT 6SM -RA BR OVC009 11/10 A3009 RMK AO2 CIG 007V012 SLP189 P0007 T01110100 401280039
Loading
Personal Weather Stations






























Interactive Weather Map
Tropical Storm Tracking
New forecast layout! Learn more

10-Day Weather Forecast

Advertisements
Track Severe Weather on mobile